createdAt,value
2023-03-07T02:44:35.800Z,992.48
2023-03-07T02:45:35.791Z,992.53
2023-03-07T02:46:35.844Z,992.41
2023-03-07T02:47:35.765Z,992.38
2023-03-07T02:48:35.759Z,992.37
2023-03-07T02:49:35.737Z,992.31
2023-03-07T02:50:35.734Z,992.29
2023-03-07T02:51:35.726Z,992.29
2023-03-07T02:52:35.708Z,992.31
2023-03-07T02:53:35.705Z,992.18
2023-03-07T02:54:35.716Z,992.23
2023-03-07T02:55:35.676Z,992.21
2023-03-07T02:56:35.666Z,992.17
2023-03-07T02:57:35.656Z,992.12
2023-03-07T02:58:35.636Z,992.09
2023-03-07T02:59:35.629Z,992.05
2023-03-07T03:00:35.624Z,992.00
2023-03-07T03:01:35.619Z,992.10
2023-03-07T03:02:35.640Z,992.01
2023-03-07T03:03:35.584Z,991.98
2023-03-07T03:04:35.669Z,991.88
2023-03-07T03:05:35.575Z,991.96
2023-03-07T03:06:35.557Z,991.93
2023-03-07T03:07:35.552Z,991.87
2023-03-07T03:08:35.551Z,991.85
2023-03-07T03:09:35.525Z,991.82
2023-03-07T03:10:35.526Z,991.79
2023-03-07T03:11:35.501Z,991.71
2023-03-07T03:12:35.504Z,991.76
2023-03-07T03:13:36.490Z,991.74
2023-03-07T03:14:35.472Z,991.70
2023-03-07T03:15:35.460Z,991.63
2023-03-07T03:16:35.447Z,991.64
2023-03-07T03:17:35.453Z,991.62
2023-03-07T03:18:35.441Z,991.58
2023-03-07T03:19:35.417Z,991.61
2023-03-07T03:20:35.405Z,991.52
2023-03-07T03:21:35.391Z,991.57
2023-03-07T03:22:35.392Z,991.48
2023-03-07T03:23:35.365Z,991.46
2023-03-07T03:24:35.350Z,991.44
2023-03-07T03:25:35.343Z,991.39
2023-03-07T03:26:35.344Z,991.37
2023-03-07T03:27:35.317Z,991.30
2023-03-07T03:28:35.321Z,991.34
2023-03-07T03:29:35.301Z,991.30
2023-03-07T03:30:35.289Z,991.28
2023-03-07T03:31:35.384Z,991.30
2023-03-07T03:32:35.316Z,991.24
2023-03-07T03:33:35.248Z,991.21
2023-03-07T03:34:35.269Z,991.21
2023-03-07T03:35:35.305Z,991.13
2023-03-07T03:36:35.218Z,991.25
2023-03-07T03:37:35.216Z,991.14
2023-03-07T03:38:35.197Z,991.17
2023-03-07T03:39:35.191Z,991.14
2023-03-07T03:40:35.168Z,991.05
2023-03-07T03:41:35.164Z,991.03
2023-03-07T03:42:35.165Z,991.03
2023-03-07T03:43:35.142Z,990.97
2023-03-07T03:44:35.132Z,990.98
2023-03-07T03:45:35.115Z,990.95
2023-03-07T03:46:35.216Z,990.97
2023-03-07T03:47:35.098Z,990.89
2023-03-07T03:48:35.083Z,990.85
2023-03-07T03:49:35.076Z,990.86
2023-03-07T03:50:35.093Z,990.85
2023-03-07T03:51:35.056Z,990.83
2023-03-07T03:52:35.047Z,990.85
2023-03-07T03:53:35.040Z,990.78
2023-03-07T03:54:35.018Z,990.76
2023-03-07T03:55:35.014Z,990.71
2023-03-07T03:56:34.999Z,990.76
2023-03-07T03:57:34.987Z,990.75
2023-03-07T03:58:34.976Z,990.70
2023-03-07T03:59:34.963Z,990.69
2023-03-07T04:00:34.946Z,990.70
2023-03-07T04:01:35.006Z,990.67
2023-03-07T04:02:35.022Z,990.66
2023-03-07T04:03:34.920Z,990.69
2023-03-07T04:04:34.916Z,990.67
2023-03-07T04:05:34.890Z,990.66
2023-03-07T04:06:34.934Z,990.62
2023-03-07T04:07:34.869Z,990.62
2023-03-07T04:08:34.864Z,990.56
2023-03-07T04:09:34.849Z,990.64
2023-03-07T04:10:34.848Z,990.60
2023-03-07T04:11:34.833Z,990.58
2023-03-07T04:12:34.812Z,990.54
2023-03-07T04:13:34.817Z,990.44
2023-03-07T04:14:34.793Z,990.50
2023-03-07T04:15:34.774Z,990.50
2023-03-07T04:16:34.862Z,990.44
2023-03-07T04:17:34.752Z,990.33
2023-03-07T04:18:34.741Z,990.42
2023-03-07T04:19:34.738Z,990.45
2023-03-07T04:20:34.722Z,990.46
2023-03-07T04:21:34.713Z,990.35
2023-03-07T04:22:34.722Z,990.24
2023-03-07T04:23:34.688Z,990.30
2023-03-07T04:24:34.683Z,990.22
2023-03-07T04:25:34.713Z,990.19
2023-03-07T04:26:34.655Z,990.23
2023-03-07T04:27:34.649Z,990.25
2023-03-07T04:28:34.626Z,990.17
2023-03-07T04:29:34.623Z,990.12
2023-03-07T04:30:34.622Z,990.17
2023-03-07T04:31:34.649Z,990.06
2023-03-07T04:32:34.630Z,990.09
2023-03-07T04:33:34.591Z,990.08
2023-03-07T04:34:34.560Z,990.03
2023-03-07T04:35:34.628Z,990.02
2023-03-07T04:36:34.546Z,990.04
2023-03-07T04:37:34.534Z,990.08
2023-03-07T04:38:34.541Z,989.97
2023-03-07T04:39:34.513Z,990.01
2023-03-07T04:40:34.497Z,989.97
2023-03-07T04:41:34.494Z,989.96
2023-03-07T04:42:34.469Z,989.96
2023-03-07T04:43:34.493Z,989.98
2023-03-07T04:44:34.453Z,989.95
2023-03-07T04:45:34.450Z,989.94
2023-03-07T04:46:34.424Z,989.87
2023-03-07T04:47:34.414Z,989.89
2023-03-07T04:48:34.404Z,989.82
2023-03-07T04:49:34.395Z,989.84
2023-03-07T04:50:34.387Z,989.88
2023-03-07T04:51:34.372Z,989.80
2023-03-07T04:52:34.357Z,989.90
2023-03-07T04:53:34.352Z,989.85
2023-03-07T04:54:34.369Z,989.82
2023-03-07T04:55:34.333Z,989.70
2023-03-07T04:56:34.315Z,989.80
2023-03-07T04:57:34.326Z,989.74
2023-03-07T04:58:34.289Z,989.71
2023-03-07T04:59:34.285Z,989.70
2023-03-07T05:00:34.266Z,989.80
2023-03-07T05:01:34.317Z,989.67
2023-03-07T05:02:34.434Z,989.54
2023-03-07T05:03:34.244Z,989.63
2023-03-07T05:04:34.293Z,989.57
2023-03-07T05:05:36.614Z,989.47
2023-03-07T05:06:34.206Z,989.48
2023-03-07T05:07:34.188Z,989.48
2023-03-07T05:08:34.183Z,989.50
2023-03-07T05:09:34.169Z,989.46
2023-03-07T05:10:34.184Z,989.49
2023-03-07T05:11:34.154Z,989.36
2023-03-07T05:12:34.132Z,989.35
2023-03-07T05:13:34.135Z,989.36
2023-03-07T05:14:34.119Z,989.33
2023-03-07T05:15:34.136Z,989.48
2023-03-07T05:16:34.093Z,989.36
2023-03-07T05:17:34.089Z,989.41
2023-03-07T05:18:34.073Z,989.34
2023-03-07T05:19:34.064Z,989.36
2023-03-07T05:20:34.059Z,989.44
2023-03-07T05:21:34.033Z,989.32
2023-03-07T05:22:34.022Z,989.32
2023-03-07T05:23:34.009Z,989.36
2023-03-07T05:24:34.006Z,989.28
2023-03-07T05:25:33.991Z,989.29
2023-03-07T05:26:33.999Z,989.28
2023-03-07T05:27:33.971Z,989.21
2023-03-07T05:28:33.964Z,989.20
2023-03-07T05:29:33.959Z,989.18
2023-03-07T05:30:33.936Z,989.21
2023-03-07T05:31:34.020Z,989.24
2023-03-07T05:32:34.001Z,989.29
2023-03-07T05:33:33.925Z,989.19
2023-03-07T05:34:35.883Z,989.27
2023-03-07T05:35:33.918Z,989.21
2023-03-07T05:36:33.880Z,989.15
2023-03-07T05:37:33.869Z,989.16
2023-03-07T05:38:33.848Z,989.16
2023-03-07T05:39:33.834Z,989.16
2023-03-07T05:40:33.826Z,989.21
2023-03-07T05:41:33.815Z,989.12
2023-03-07T05:42:33.837Z,989.21
2023-03-07T05:43:33.790Z,989.23
2023-03-07T05:44:34.245Z,989.16
2023-03-07T05:45:33.766Z,989.18
2023-03-07T05:46:33.801Z,989.22
2023-03-07T05:47:33.751Z,989.18
2023-03-07T05:48:35.739Z,989.23
2023-03-07T05:49:33.725Z,989.15
2023-03-07T05:50:33.734Z,989.11
2023-03-07T05:51:33.702Z,989.12
2023-03-07T05:52:33.685Z,989.03
2023-03-07T05:53:33.688Z,989.22
2023-03-07T05:54:33.670Z,989.01
2023-03-07T05:55:33.659Z,989.10
2023-03-07T05:56:33.645Z,989.07
2023-03-07T05:57:33.642Z,989.05
2023-03-07T05:58:33.652Z,989.15
2023-03-07T05:59:33.618Z,989.16
2023-03-07T06:00:33.599Z,989.02
2023-03-07T06:01:33.593Z,989.06
2023-03-07T06:02:33.643Z,989.00
2023-03-07T06:03:35.594Z,989.03
2023-03-07T06:04:33.554Z,989.10
2023-03-07T06:05:33.545Z,989.07
2023-03-07T06:06:33.532Z,989.02
2023-03-07T06:07:33.524Z,988.97
2023-03-07T06:08:33.512Z,989.00
2023-03-07T06:09:33.504Z,989.06
2023-03-07T06:10:33.495Z,989.03
2023-03-07T06:11:33.471Z,989.05
2023-03-07T06:12:33.489Z,988.98
2023-03-07T06:13:33.464Z,988.88
2023-03-07T06:14:33.466Z,989.01
2023-03-07T06:15:33.440Z,988.96
2023-03-07T06:16:33.418Z,988.99
2023-03-07T06:17:35.414Z,989.00
2023-03-07T06:18:33.394Z,988.89
2023-03-07T06:19:33.388Z,988.98
2023-03-07T06:20:35.383Z,989.02
2023-03-07T06:21:33.364Z,988.93
2023-03-07T06:22:33.358Z,988.97
2023-03-07T06:23:33.344Z,988.97
2023-03-07T06:24:33.342Z,988.95
2023-03-07T06:25:33.316Z,988.97
2023-03-07T06:26:33.305Z,988.93
2023-03-07T06:27:33.299Z,988.98
2023-03-07T06:28:33.289Z,989.01
2023-03-07T06:29:33.284Z,988.96
2023-03-07T06:30:33.299Z,988.94
2023-03-07T06:31:33.327Z,988.98
2023-03-07T06:32:33.287Z,988.98
2023-03-07T06:33:33.253Z,988.88
2023-03-07T06:34:33.216Z,988.96
2023-03-07T06:35:33.252Z,988.99
2023-03-07T06:36:33.200Z,988.94
2023-03-07T06:37:33.183Z,988.97
2023-03-07T06:38:33.188Z,988.93
2023-03-07T06:39:33.167Z,989.03
2023-03-07T06:40:33.148Z,989.02
2023-03-07T06:41:33.142Z,988.96
2023-03-07T06:42:33.134Z,988.99
2023-03-07T06:43:33.117Z,988.99
2023-03-07T06:44:33.115Z,989.05
2023-03-07T06:45:33.148Z,989.11
2023-03-07T06:46:33.156Z,989.02
2023-03-07T06:47:33.078Z,989.05
2023-03-07T06:48:33.068Z,989.06
2023-03-07T06:49:33.055Z,989.05
2023-03-07T06:50:35.572Z,989.08
2023-03-07T06:51:33.027Z,989.12
2023-03-07T06:52:33.032Z,989.03
2023-03-07T06:53:33.012Z,989.03
2023-03-07T06:54:33.002Z,989.14
2023-03-07T06:55:32.988Z,989.10
2023-03-07T06:56:32.981Z,989.15
2023-03-07T06:57:32.969Z,989.07
2023-03-07T06:58:32.961Z,989.12
2023-03-07T06:59:32.953Z,989.09
2023-03-07T07:00:32.930Z,989.07
2023-03-07T07:01:32.931Z,989.20
2023-03-07T07:02:33.073Z,989.07
2023-03-07T07:03:32.897Z,989.16
2023-03-07T07:04:32.891Z,989.11
2023-03-07T07:05:32.873Z,989.03
2023-03-07T07:06:32.882Z,989.03
2023-03-07T07:07:32.850Z,989.15
2023-03-07T07:08:32.847Z,989.05
2023-03-07T07:09:32.837Z,989.11
2023-03-07T07:10:32.821Z,989.01
2023-03-07T07:11:32.817Z,989.01
2023-03-07T07:12:32.814Z,989.04
2023-03-07T07:13:32.791Z,989.03
2023-03-07T07:14:32.784Z,989.01
2023-03-07T07:15:32.775Z,989.10
2023-03-07T07:16:32.824Z,988.91
2023-03-07T07:17:32.752Z,989.03
2023-03-07T07:18:32.759Z,988.99
2023-03-07T07:19:32.717Z,988.95
2023-03-07T07:20:32.709Z,988.94
2023-03-07T07:21:32.696Z,988.97
2023-03-07T07:22:32.688Z,988.91
2023-03-07T07:23:32.694Z,988.88
2023-03-07T07:24:32.667Z,988.92
2023-03-07T07:25:32.662Z,989.01
2023-03-07T07:26:32.652Z,989.00
2023-03-07T07:27:32.630Z,988.95
2023-03-07T07:28:32.638Z,988.99
2023-03-07T07:29:32.620Z,988.95
2023-03-07T07:30:32.602Z,988.88
2023-03-07T07:31:32.636Z,988.92
2023-03-07T07:32:32.829Z,988.89
2023-03-07T07:33:32.655Z,988.86
2023-03-07T07:34:32.587Z,988.85
2023-03-07T07:35:32.573Z,989.01
2023-03-07T07:36:32.532Z,988.91
2023-03-07T07:37:32.527Z,988.81
2023-03-07T07:38:32.545Z,988.87
2023-03-07T07:39:32.520Z,988.89
2023-03-07T07:40:32.503Z,988.92
2023-03-07T07:41:32.477Z,988.93
2023-03-07T07:42:32.560Z,988.90
2023-03-07T07:43:32.457Z,988.85
2023-03-07T07:44:32.446Z,988.78
2023-03-07T07:45:32.442Z,988.80
2023-03-07T07:46:32.443Z,988.87
2023-03-07T07:47:32.421Z,988.83
2023-03-07T07:48:32.403Z,988.83
2023-03-07T07:49:32.406Z,988.81
2023-03-07T07:50:32.423Z,988.84
2023-03-07T07:51:32.381Z,988.77
2023-03-07T07:52:32.370Z,988.75
2023-03-07T07:53:32.372Z,988.78
2023-03-07T07:54:32.338Z,988.80
2023-03-07T07:55:32.328Z,988.82
2023-03-07T07:56:32.330Z,988.82
2023-03-07T07:57:32.309Z,988.80
2023-03-07T07:58:32.304Z,988.82
2023-03-07T07:59:32.309Z,988.76
2023-03-07T08:00:32.295Z,988.84
2023-03-07T08:01:32.274Z,988.75
2023-03-07T08:02:32.339Z,988.89
2023-03-07T08:03:32.253Z,988.84
2023-03-07T08:04:32.228Z,988.84
2023-03-07T08:05:32.218Z,988.84
2023-03-07T08:06:32.235Z,988.78
2023-03-07T08:07:32.209Z,988.82
2023-03-07T08:08:32.200Z,988.76
2023-03-07T08:09:32.182Z,988.85
2023-03-07T08:10:32.164Z,988.75
2023-03-07T08:11:32.169Z,988.81
2023-03-07T08:12:32.151Z,988.76
2023-03-07T08:13:32.130Z,988.87
2023-03-07T08:14:32.123Z,988.83
2023-03-07T08:15:32.168Z,988.78
2023-03-07T08:16:32.105Z,988.83
2023-03-07T08:17:32.099Z,988.85
2023-03-07T08:18:32.082Z,988.84
2023-03-07T08:19:32.076Z,988.91
2023-03-07T08:20:32.054Z,988.81
2023-03-07T08:21:32.049Z,988.89
2023-03-07T08:22:32.066Z,988.86
2023-03-07T08:23:32.020Z,988.83
2023-03-07T08:24:40.205Z,988.89
2023-03-07T08:25:32.005Z,988.94
2023-03-07T08:26:32.012Z,988.96
2023-03-07T08:27:31.979Z,988.88
2023-03-07T08:28:32.007Z,988.86
2023-03-07T08:29:31.959Z,988.85
2023-03-07T08:30:31.946Z,988.80
2023-03-07T08:31:32.029Z,988.75
2023-03-07T08:32:31.957Z,988.77
2023-03-07T08:33:31.928Z,988.79
2023-03-07T08:34:31.909Z,988.74
2023-03-07T08:35:31.970Z,988.79
2023-03-07T08:36:31.879Z,988.81
2023-03-07T08:37:31.864Z,988.85
2023-03-07T08:38:31.901Z,988.84
2023-03-07T08:39:31.846Z,988.82
2023-03-07T08:40:31.853Z,988.76
2023-03-07T08:41:31.830Z,988.81
2023-03-07T08:42:31.873Z,988.81
2023-03-07T08:43:31.862Z,988.82
2023-03-07T08:44:31.786Z,988.88
2023-03-07T08:45:31.782Z,988.82
2023-03-07T08:46:31.810Z,988.89
2023-03-07T08:47:31.749Z,988.85
2023-03-07T08:48:31.744Z,988.86
2023-03-07T08:49:31.729Z,988.88
2023-03-07T08:50:31.715Z,988.92
2023-03-07T08:51:31.700Z,988.80
2023-03-07T08:52:31.693Z,988.85
2023-03-07T08:53:31.694Z,988.87
2023-03-07T08:54:31.699Z,988.75
2023-03-07T08:55:31.668Z,988.89
2023-03-07T08:56:31.650Z,988.80
2023-03-07T08:57:31.633Z,988.74
2023-03-07T08:58:31.623Z,988.83
2023-03-07T08:59:31.610Z,988.84
2023-03-07T09:00:31.599Z,988.79
2023-03-07T09:01:31.629Z,988.83
2023-03-07T09:02:31.577Z,988.79
2023-03-07T09:03:31.573Z,988.76
2023-03-07T09:04:31.613Z,988.85
2023-03-07T09:05:31.547Z,988.77
2023-03-07T09:06:31.535Z,988.83
2023-03-07T09:07:31.524Z,988.74
2023-03-07T09:08:31.505Z,988.79
2023-03-07T09:09:31.503Z,988.85
2023-03-07T09:10:31.522Z,988.82
2023-03-07T09:11:31.479Z,988.84
2023-03-07T09:12:31.462Z,988.76
2023-03-07T09:13:35.914Z,988.85
2023-03-07T09:14:31.443Z,988.83
2023-03-07T09:15:31.435Z,988.73
2023-03-07T09:16:31.470Z,988.87
2023-03-07T09:17:31.409Z,988.75
2023-03-07T09:18:31.776Z,988.72
2023-03-07T09:19:31.389Z,988.79
2023-03-07T09:20:31.380Z,988.82
2023-03-07T09:21:31.367Z,988.73
2023-03-07T09:22:31.353Z,988.75
2023-03-07T09:23:31.346Z,988.75
2023-03-07T09:24:31.328Z,988.79
2023-03-07T09:25:31.326Z,988.82
2023-03-07T09:26:31.333Z,988.81
2023-03-07T09:27:31.307Z,988.77
2023-03-07T09:28:31.285Z,988.71
2023-03-07T09:29:31.302Z,988.80
2023-03-07T09:30:31.275Z,988.76
2023-03-07T09:31:31.281Z,988.80
2023-03-07T09:32:31.384Z,988.73
2023-03-07T09:33:31.235Z,988.74
2023-03-07T09:34:31.226Z,988.76
2023-03-07T09:35:31.281Z,988.66
2023-03-07T09:36:31.199Z,988.78
2023-03-07T09:37:31.197Z,988.68
2023-03-07T09:38:31.178Z,988.69
2023-03-07T09:39:31.161Z,988.74
2023-03-07T09:40:31.168Z,988.69
2023-03-07T09:41:31.147Z,988.77
2023-03-07T09:42:31.183Z,988.70
2023-03-07T09:43:31.118Z,988.65
2023-03-07T09:44:31.110Z,988.68
2023-03-07T09:45:31.124Z,988.66
2023-03-07T09:46:31.086Z,988.69
2023-03-07T09:47:31.078Z,988.69
2023-03-07T09:48:31.063Z,988.72
2023-03-07T09:49:31.051Z,988.69
2023-03-07T09:50:31.089Z,988.69
2023-03-07T09:51:31.032Z,988.70
2023-03-07T09:52:31.013Z,988.67
2023-03-07T09:53:31.009Z,988.77
2023-03-07T09:54:30.994Z,988.73
2023-03-07T09:55:30.981Z,988.82
2023-03-07T09:56:30.975Z,988.77
2023-03-07T09:57:30.969Z,988.71
2023-03-07T09:58:30.996Z,988.76
2023-03-07T09:59:30.938Z,988.74
2023-03-07T10:00:30.939Z,988.63
2023-03-07T10:01:30.917Z,988.70
2023-03-07T10:02:30.914Z,988.64
2023-03-07T10:03:30.991Z,988.66
2023-03-07T10:04:30.913Z,988.57
2023-03-07T10:05:30.874Z,988.66
2023-03-07T10:06:30.856Z,988.68
2023-03-07T10:07:30.853Z,988.72
2023-03-07T10:08:30.849Z,988.67
2023-03-07T10:09:30.835Z,988.57
2023-03-07T10:10:30.815Z,988.53
2023-03-07T10:11:30.857Z,988.56
2023-03-07T10:12:30.805Z,988.61
2023-03-07T10:13:30.788Z,988.58
2023-03-07T10:14:30.849Z,988.57
2023-03-07T10:15:30.838Z,988.57
2023-03-07T10:16:30.774Z,988.64
2023-03-07T10:17:30.748Z,988.65
2023-03-07T10:18:30.753Z,988.70
2023-03-07T10:19:30.717Z,988.55
2023-03-07T10:20:30.703Z,988.65
2023-03-07T10:21:30.699Z,988.66
2023-03-07T10:22:30.683Z,988.60
2023-03-07T10:23:30.672Z,988.70
2023-03-07T10:24:30.670Z,988.57
2023-03-07T10:25:30.652Z,988.53
2023-03-07T10:26:30.639Z,988.68
2023-03-07T10:27:30.630Z,988.65
2023-03-07T10:28:30.619Z,988.62
2023-03-07T10:29:30.609Z,988.61
2023-03-07T10:30:30.632Z,988.69
2023-03-07T10:31:30.601Z,988.70
2023-03-07T10:32:30.628Z,988.69
2023-03-07T10:33:30.572Z,988.62
2023-03-07T10:34:32.496Z,988.57
2023-03-07T10:35:30.549Z,988.60
2023-03-07T10:36:30.526Z,988.77
2023-03-07T10:37:30.512Z,988.72
2023-03-07T10:38:30.533Z,988.73
2023-03-07T10:39:30.505Z,988.67
2023-03-07T10:40:30.482Z,988.69
2023-03-07T10:41:30.484Z,988.77
2023-03-07T10:42:30.471Z,988.65
2023-03-07T10:43:30.447Z,988.62
2023-03-07T10:44:30.442Z,988.64
2023-03-07T10:45:30.423Z,988.76
2023-03-07T10:46:30.539Z,988.61
2023-03-07T10:47:30.410Z,988.56
2023-03-07T10:48:30.402Z,988.62
2023-03-07T10:49:30.399Z,988.84
2023-03-07T10:50:30.382Z,988.73
2023-03-07T10:51:30.369Z,988.71
2023-03-07T10:52:30.363Z,988.74
2023-03-07T10:53:30.342Z,988.83
2023-03-07T10:54:30.389Z,988.57
2023-03-07T10:55:30.320Z,988.73
2023-03-07T10:56:30.304Z,988.69
2023-03-07T10:57:30.307Z,988.71
2023-03-07T10:58:30.290Z,988.71
2023-03-07T10:59:30.277Z,988.64
2023-03-07T11:00:30.269Z,988.62
2023-03-07T11:01:30.319Z,988.59
2023-03-07T11:02:30.292Z,988.64
2023-03-07T11:03:31.240Z,988.58
2023-03-07T11:04:30.330Z,988.64
2023-03-07T11:05:30.213Z,988.53
2023-03-07T11:06:30.196Z,988.48
2023-03-07T11:07:30.186Z,988.57
2023-03-07T11:08:30.177Z,988.55
2023-03-07T11:09:30.166Z,988.51
2023-03-07T11:10:30.156Z,988.52
2023-03-07T11:11:30.140Z,988.46
2023-03-07T11:12:30.136Z,988.40
2023-03-07T11:13:30.125Z,988.41
2023-03-07T11:14:30.155Z,988.41
2023-03-07T11:15:30.096Z,988.47
2023-03-07T11:16:30.123Z,988.33
2023-03-07T11:17:30.078Z,988.31
2023-03-07T11:18:30.085Z,988.27
2023-03-07T11:19:30.054Z,988.35
2023-03-07T11:20:30.759Z,988.33
2023-03-07T11:21:30.036Z,988.22
2023-03-07T11:22:30.030Z,988.20
2023-03-07T11:23:30.024Z,988.24
2023-03-07T11:24:30.049Z,988.20
2023-03-07T11:25:29.997Z,988.25
2023-03-07T11:26:30.036Z,988.20
2023-03-07T11:27:29.972Z,988.18
2023-03-07T11:28:30.034Z,988.20
2023-03-07T11:29:29.942Z,988.25
2023-03-07T11:30:29.989Z,988.10
2023-03-07T11:31:30.006Z,988.14
2023-03-07T11:32:29.932Z,988.24
2023-03-07T11:33:29.905Z,988.20
2023-03-07T11:34:29.928Z,988.20
2023-03-07T11:35:29.913Z,988.23
2023-03-07T11:36:29.875Z,988.25
2023-03-07T11:37:29.887Z,988.20
2023-03-07T11:38:29.849Z,988.06
2023-03-07T11:39:29.831Z,988.13
2023-03-07T11:40:29.838Z,988.10
2023-03-07T11:41:29.817Z,988.13
2023-03-07T11:42:29.811Z,988.10
2023-03-07T11:43:29.793Z,988.05
2023-03-07T11:44:29.786Z,988.00
2023-03-07T11:45:29.772Z,988.04
2023-03-07T11:46:29.856Z,988.10
2023-03-07T11:47:29.750Z,988.09
2023-03-07T11:48:29.742Z,988.10
2023-03-07T11:49:29.731Z,987.90
2023-03-07T11:50:29.743Z,987.98
2023-03-07T11:51:29.709Z,987.83
2023-03-07T11:52:29.698Z,988.06
2023-03-07T11:53:29.683Z,987.97
2023-03-07T11:54:29.692Z,987.95
2023-03-07T11:55:29.658Z,988.03
2023-03-07T11:56:29.655Z,987.98
2023-03-07T11:57:29.645Z,987.98
2023-03-07T11:58:29.628Z,988.01
2023-03-07T11:59:29.632Z,987.99
2023-03-07T12:00:29.618Z,988.01
2023-03-07T12:01:29.598Z,987.93
2023-03-07T12:02:29.610Z,987.96
2023-03-07T12:03:29.588Z,987.89
2023-03-07T12:04:29.569Z,987.93
2023-03-07T12:05:29.641Z,987.90
2023-03-07T12:06:29.590Z,987.92
2023-03-07T12:07:30.991Z,987.96
2023-03-07T12:08:29.525Z,987.95
2023-03-07T12:09:29.519Z,988.01
2023-03-07T12:10:29.511Z,987.99
2023-03-07T12:11:29.501Z,988.01
2023-03-07T12:12:29.508Z,988.00
2023-03-07T12:13:31.880Z,987.95
2023-03-07T12:14:29.466Z,987.89
2023-03-07T12:15:29.446Z,988.03
2023-03-07T12:16:29.486Z,987.99
2023-03-07T12:17:29.433Z,987.96
2023-03-07T12:18:29.433Z,988.00
2023-03-07T12:19:31.195Z,988.07
2023-03-07T12:20:29.401Z,988.03
2023-03-07T12:21:29.384Z,988.06
2023-03-07T12:22:29.427Z,988.03
2023-03-07T12:23:29.368Z,988.06
2023-03-07T12:24:29.354Z,988.06
2023-03-07T12:25:29.402Z,988.07
2023-03-07T12:26:29.374Z,988.07
2023-03-07T12:27:29.324Z,988.00
2023-03-07T12:28:29.313Z,988.06
2023-03-07T12:29:29.296Z,987.99
2023-03-07T12:30:29.285Z,988.06
2023-03-07T12:31:29.370Z,988.11
2023-03-07T12:32:29.527Z,987.98
2023-03-07T12:33:29.455Z,987.96
2023-03-07T12:34:29.268Z,988.04
2023-03-07T12:35:29.248Z,988.00
2023-03-07T12:36:29.258Z,987.92
2023-03-07T12:37:29.212Z,988.00
2023-03-07T12:38:29.231Z,987.99
2023-03-07T12:39:29.302Z,988.00
2023-03-07T12:40:29.186Z,988.04
2023-03-07T12:41:29.172Z,987.97
2023-03-07T12:42:29.170Z,988.08
2023-03-07T12:43:29.157Z,988.03
2023-03-07T12:44:29.141Z,987.94
2023-03-07T12:45:29.193Z,987.97
2023-03-07T12:46:29.213Z,987.92
2023-03-07T12:47:29.103Z,987.95
2023-03-07T12:48:29.092Z,987.96
2023-03-07T12:49:30.927Z,987.94
2023-03-07T12:50:29.078Z,987.93
2023-03-07T12:51:29.063Z,987.85
2023-03-07T12:52:29.054Z,987.94
2023-03-07T12:53:29.053Z,987.90
2023-03-07T12:54:29.085Z,987.92
2023-03-07T12:55:29.015Z,987.88
2023-03-07T12:56:29.010Z,987.94
2023-03-07T12:57:28.997Z,987.98
2023-03-07T12:58:28.981Z,988.02
2023-03-07T12:59:28.970Z,988.02
2023-03-07T13:00:28.966Z,988.02
2023-03-07T13:01:29.077Z,988.01
2023-03-07T13:02:28.939Z,988.03
2023-03-07T13:03:28.932Z,987.99
2023-03-07T13:04:28.958Z,988.05
2023-03-07T13:05:28.910Z,988.12
2023-03-07T13:06:28.898Z,988.01
2023-03-07T13:07:28.881Z,988.05
2023-03-07T13:08:28.875Z,988.07
2023-03-07T13:09:28.863Z,988.04
2023-03-07T13:10:28.937Z,988.10
2023-03-07T13:11:28.862Z,988.11
2023-03-07T13:12:28.835Z,988.16
2023-03-07T13:13:28.822Z,988.23
2023-03-07T13:14:28.820Z,988.19
2023-03-07T13:15:28.796Z,988.23
2023-03-07T13:16:28.800Z,988.24
2023-03-07T13:17:28.768Z,988.20
2023-03-07T13:18:28.775Z,988.20
2023-03-07T13:19:28.751Z,988.22
2023-03-07T13:20:28.741Z,988.24
2023-03-07T13:21:28.731Z,988.21
2023-03-07T13:22:28.719Z,988.12
2023-03-07T13:23:28.804Z,988.20
2023-03-07T13:24:28.695Z,988.14
2023-03-07T13:25:28.678Z,988.18
2023-03-07T13:26:28.700Z,988.11
2023-03-07T13:27:28.656Z,988.11
2023-03-07T13:28:28.754Z,988.20
2023-03-07T13:29:28.740Z,988.15
2023-03-07T13:30:28.803Z,988.20
2023-03-07T13:31:28.725Z,988.24
2023-03-07T13:32:28.763Z,988.21
2023-03-07T13:33:28.652Z,988.25
2023-03-07T13:34:28.678Z,988.23
2023-03-07T13:35:28.886Z,988.25
2023-03-07T13:36:28.667Z,988.19
2023-03-07T13:37:28.599Z,988.16
2023-03-07T13:38:28.548Z,988.18
2023-03-07T13:39:28.525Z,988.23
2023-03-07T13:40:28.515Z,988.21
2023-03-07T13:41:28.511Z,988.17
2023-03-07T13:42:28.623Z,988.26
2023-03-07T13:43:28.633Z,988.20
2023-03-07T13:44:28.470Z,988.24
2023-03-07T13:45:28.470Z,988.20
2023-03-07T13:46:28.604Z,988.20
2023-03-07T13:47:28.438Z,988.20
2023-03-07T13:48:28.433Z,988.19
2023-03-07T13:49:28.416Z,988.22
2023-03-07T13:50:28.404Z,988.29
2023-03-07T13:51:29.913Z,988.27
2023-03-07T13:52:28.393Z,988.25
2023-03-07T13:53:28.377Z,988.31
2023-03-07T13:54:28.371Z,988.26
2023-03-07T13:55:28.371Z,988.23
2023-03-07T13:56:28.356Z,988.25
2023-03-07T13:57:30.707Z,988.22
2023-03-07T13:58:28.350Z,988.25
2023-03-07T13:59:28.330Z,988.22
2023-03-07T14:00:28.303Z,988.22
2023-03-07T14:01:28.357Z,988.21
2023-03-07T14:02:28.280Z,988.21
2023-03-07T14:03:28.328Z,988.21
2023-03-07T14:04:39.343Z,988.18
2023-03-07T14:05:28.249Z,988.19
2023-03-07T14:06:28.236Z,988.10
2023-03-07T14:07:28.382Z,988.13
2023-03-07T14:08:28.232Z,988.04
2023-03-07T14:09:28.242Z,988.00
2023-03-07T14:10:28.207Z,988.02
2023-03-07T14:11:28.181Z,988.01
2023-03-07T14:12:28.177Z,987.99
2023-03-07T14:13:28.197Z,988.05
2023-03-07T14:14:28.170Z,988.00
2023-03-07T14:15:28.149Z,987.99
2023-03-07T14:16:28.151Z,988.06
2023-03-07T14:17:28.221Z,988.04
2023-03-07T14:18:28.110Z,988.06
2023-03-07T14:19:28.110Z,987.98
2023-03-07T14:20:28.093Z,988.02
2023-03-07T14:21:28.082Z,988.10
2023-03-07T14:22:28.061Z,988.02
2023-03-07T14:23:28.062Z,988.10
2023-03-07T14:24:28.038Z,988.05
2023-03-07T14:25:28.034Z,988.06
2023-03-07T14:26:28.041Z,988.01
2023-03-07T14:27:28.044Z,988.03
2023-03-07T14:28:28.019Z,988.04
2023-03-07T14:29:27.994Z,988.03
2023-03-07T14:30:28.038Z,987.98
2023-03-07T14:31:28.058Z,987.99
2023-03-07T14:32:28.052Z,987.95
2023-03-07T14:33:27.947Z,987.97
2023-03-07T14:34:27.934Z,988.06
2023-03-07T14:35:27.939Z,988.01
2023-03-07T14:36:27.918Z,988.07
2023-03-07T14:37:27.907Z,988.02
2023-03-07T14:38:27.892Z,988.02
2023-03-07T14:39:27.887Z,988.03
2023-03-07T14:40:27.867Z,988.03
2023-03-07T14:41:27.857Z,988.04
2023-03-07T14:42:27.842Z,988.02
2023-03-07T14:43:27.841Z,988.08
2023-03-07T14:44:27.833Z,987.99
2023-03-07T14:45:27.816Z,988.07
2023-03-07T14:46:27.935Z,987.91
2023-03-07T14:47:27.791Z,987.91
2023-03-07T14:48:27.780Z,987.95
2023-03-07T14:49:27.765Z,988.07
2023-03-07T14:50:27.774Z,988.03
2023-03-07T14:51:27.750Z,988.10
2023-03-07T14:52:31.130Z,988.13
2023-03-07T14:53:27.720Z,988.17
2023-03-07T14:54:27.722Z,988.13
2023-03-07T14:55:27.698Z,988.00
2023-03-07T14:56:27.714Z,988.05
2023-03-07T14:57:27.676Z,988.05
2023-03-07T14:58:27.657Z,988.13
2023-03-07T14:59:29.385Z,988.11
2023-03-07T15:00:27.637Z,988.07
2023-03-07T15:01:27.655Z,988.01
2023-03-07T15:02:27.655Z,988.09
2023-03-07T15:03:27.602Z,987.96
2023-03-07T15:04:27.759Z,988.01
2023-03-07T15:05:27.600Z,988.06
2023-03-07T15:06:27.577Z,988.06
2023-03-07T15:07:27.562Z,988.01
2023-03-07T15:08:27.571Z,988.10
2023-03-07T15:09:27.554Z,988.12
2023-03-07T15:10:27.542Z,988.16
2023-03-07T15:11:27.529Z,988.19
2023-03-07T15:12:27.515Z,988.21